Time;durP1;ratioP1;P1;durP2;ratioP2;P2;SDS_P1;SDS_P2;PMS_P1;PMS_P2;Temp;Humidity;BMP_temperature;BMP_pressure;BME280_temperature;BME280_humidity;BME280_pressure;Samples;Min_cycle;Max_cycle;Signal;HPM_P1;HPM_P2
2023/08/26 00:00:43;;;;;;;6.90;4.88;;;21.10;99.90;;;22.81;68.71;97170.47;5011778;28;20057;-51
2023/08/26 00:03:11;;;;;;;6.50;5.07;;;21.10;99.90;;;22.79;68.72;97159.03;5011819;28;20042;-53
2023/08/26 00:05:39;;;;;;;7.05;5.93;;;21.10;99.90;;;22.66;68.82;97162.13;5027340;28;20049;-49
2023/08/26 00:08:06;;;;;;;7.30;5.18;;;21.00;99.90;;;22.58;69.03;97157.13;5012287;28;20038;-48
2023/08/26 00:10:34;;;;;;;7.40;5.50;;;20.90;99.90;;;22.52;69.41;97142.69;5011698;28;20045;-50
2023/08/26 00:13:02;;;;;;;6.30;5.70;;;20.90;99.90;;;22.55;69.26;97144.91;5010509;28;20049;-51
2023/08/26 00:15:29;;;;;;;7.20;5.25;;;20.90;99.90;;;22.52;69.25;97142.69;5011773;28;20041;-48
2023/08/26 00:17:57;;;;;;;7.00;5.15;;;20.90;99.90;;;22.52;69.34;97145.38;5011052;28;20046;-50
2023/08/26 00:20:27;;;;;;;8.23;5.22;;;20.80;99.90;;;22.54;69.47;97145.16;5011438;28;20038;-48
2023/08/26 00:22:55;;;;;;;7.72;5.20;;;20.90;99.90;;;22.58;69.13;97141.66;5011761;28;20417;-51
2023/08/26 00:25:22;;;;;;;6.43;5.70;;;20.90;99.90;;;22.64;69.30;97141.75;5011798;28;20045;-53
2023/08/26 00:27:50;;;;;;;7.10;4.80;;;21.00;99.90;;;22.63;69.18;97149.06;5011832;28;20038;-54
2023/08/26 00:30:17;;;;;;;8.70;5.15;;;21.00;99.90;;;22.60;69.61;97166.69;5026229;28;20058;-47
2023/08/26 00:32:45;;;;;;;6.68;5.25;;;20.90;99.90;;;22.66;69.34;97161.31;5018383;28;20061;-53
2023/08/26 00:35:13;;;;;;;8.98;6.13;;;21.00;99.90;;;22.69;69.79;97149.97;5018330;28;20049;-47
2023/08/26 00:37:40;;;;;;;7.03;5.60;;;21.00;99.90;;;22.74;69.56;97148.16;5026447;28;20038;-50
2023/08/26 00:40:09;;;;;;;8.32;6.35;;;21.10;99.90;;;22.77;69.61;97150.34;5026302;28;20045;-50
2023/08/26 00:42:36;;;;;;;7.28;4.75;;;21.10;99.90;;;22.79;69.61;97152.81;5022864;28;20050;-51
2023/08/26 00:45:06;;;;;;;5.85;4.90;;;21.10;99.90;;;22.81;69.57;97158.81;5017489;28;20423;-52
2023/08/26 00:47:37;;;;;;;7.07;5.32;;;21.10;99.90;;;22.83;69.64;97174.84;5027105;28;20398;-52
2023/08/26 00:50:05;;;;;;;9.27;5.18;;;21.10;99.90;;;22.77;69.45;97172.03;5011334;28;20552;-49
2023/08/26 00:52:36;;;;;;;7.25;4.97;;;21.10;99.90;;;22.67;69.71;97173.81;5026494;28;20052;-49
2023/08/26 00:55:05;;;;;;;7.57;5.50;;;20.90;99.90;;;22.62;69.73;97177.25;4994006;28;20417;-52
2023/08/26 00:57:33;;;;;;;6.75;4.93;;;20.80;99.90;;;22.58;69.58;97179.66;5010420;28;20049;-48
2023/08/26 01:00:00;;;;;;;9.20;5.30;;;20.80;99.90;;;22.57;69.40;97182.63;4977776;28;20068;-50
2023/08/26 01:02:29;;;;;;;6.97;5.35;;;20.90;99.90;;;22.54;69.75;97181.22;4993710;28;20048;-50
2023/08/26 01:04:58;;;;;;;7.45;5.10;;;20.90;99.90;;;22.45;69.93;97187.31;5011406;28;20046;-49
2023/08/26 01:07:25;;;;;;;6.50;5.50;;;20.80;99.90;;;22.39;70.40;97189.13;5011780;28;20056;-50
2023/08/26 01:09:53;;;;;;;8.00;5.32;;;20.70;99.90;;;22.41;70.21;97176.97;5006823;28;20053;-49
2023/08/26 01:12:47;;;;;;;7.38;5.30;;;20.70;99.90;;;22.47;70.51;97177.03;5008428;28;20528;-53
2023/08/26 01:15:15;;;;;;;5.57;4.97;;;20.80;99.90;;;22.48;70.23;97181.41;5003069;28;20057;-53
2023/08/26 01:17:44;;;;;;;9.43;6.35;;;20.80;99.90;;;22.48;70.36;97174.09;5010896;28;20042;-50
2023/08/26 01:20:14;;;;;;;8.57;6.05;;;20.80;99.90;;;22.49;70.44;97164.88;5001583;28;20510;-52
2023/08/26 01:22:45;;;;;;;7.18;5.05;;;20.70;99.90;;;22.53;70.16;97167.94;5009785;28;20046;-49
2023/08/26 01:25:16;;;;;;;9.02;6.25;;;20.80;99.90;;;22.53;70.24;97167.94;5010402;28;20046;-50
2023/08/26 01:27:43;;;;;;;8.55;5.22;;;20.80;99.90;;;22.54;70.23;97173.06;5025944;28;20042;-50
2023/08/26 01:30:12;;;;;;;7.97;5.20;;;20.80;99.90;;;22.47;70.20;97171.63;5017667;28;20050;-52
2023/08/26 01:32:55;;;;;;;7.70;5.15;;;20.80;99.90;;;22.41;70.32;97171.56;5009967;28;20046;-50
2023/08/26 01:35:32;;;;;;;6.85;5.22;;;20.70;99.90;;;22.39;70.26;97173.69;5011041;28;20057;-51
2023/08/26 01:37:59;;;;;;;7.80;4.80;;;20.60;99.90;;;22.31;70.80;97190.38;5010164;28;20042;-52
2023/08/26 01:40:29;;;;;;;7.05;5.10;;;20.60;99.90;;;22.24;70.81;97192.41;5010477;28;20042;-52
2023/08/26 01:42:58;;;;;;;7.97;5.53;;;20.60;99.90;;;22.19;71.02;97203.97;4993009;28;20052;-50
2023/08/26 01:45:26;;;;;;;7.05;5.03;;;20.50;99.90;;;22.14;71.50;97198.50;4993598;28;20050;-53
2023/08/26 01:47:53;;;;;;;7.30;5.00;;;20.50;99.90;;;22.16;71.70;97199.06;5025672;28;20049;-49
2023/08/26 01:50:21;;;;;;;7.18;5.20;;;20.50;99.90;;;22.21;71.64;97195.59;5026008;28;20066;-48
2023/08/26 01:52:49;;;;;;;7.30;5.82;;;20.60;99.90;;;22.23;71.49;97198.88;5010647;28;20042;-50
2023/08/26 01:55:17;;;;;;;7.03;5.72;;;20.50;99.90;;;22.26;71.47;97208.47;5009427;28;20046;-52
2023/08/26 01:57:44;;;;;;;12.23;5.70;;;20.60;99.90;;;22.23;71.53;97209.72;5009104;28;20505;-48
2023/08/26 02:00:13;;;;;;;7.32;5.20;;;20.60;99.90;;;22.19;71.56;97216.72;5026266;28;20085;-49
2023/08/26 02:02:43;;;;;;;8.63;5.75;;;20.50;99.90;;;22.13;71.52;97209.56;5016440;28;20118;-48
2023/08/26 02:05:11;;;;;;;6.75;5.25;;;20.40;99.90;;;22.10;72.04;97207.34;5014245;28;20034;-49
2023/08/26 02:07:39;;;;;;;8.63;4.93;;;20.40;99.90;;;22.15;71.77;97207.44;5029609;28;20140;-52
2023/08/26 02:10:07;;;;;;;8.00;5.90;;;20.50;99.90;;;22.13;71.58;97221.22;5004578;28;20501;-48
2023/08/26 02:12:35;;;;;;;7.07;5.85;;;20.50;99.90;;;22.15;71.67;97219.09;5012498;28;20049;-50
2023/08/26 02:15:03;;;;;;;6.53;4.60;;;20.50;99.90;;;22.17;71.26;97216.16;5021009;28;20520;-51
2023/08/26 02:17:31;;;;;;;6.10;4.70;;;20.50;99.90;;;22.13;70.94;97223.13;5012043;28;20069;-51
2023/08/26 02:19:59;;;;;;;5.60;4.32;;;20.60;99.90;;;22.11;70.90;97214.41;4996592;28;20520;-49
2023/08/26 02:22:26;;;;;;;6.10;4.65;;;20.50;99.90;;;22.15;70.57;97219.09;5011356;28;20050;-53
2023/08/26 02:24:54;;;;;;;6.32;4.78;;;20.60;99.90;;;22.14;70.77;97217.47;5012192;28;20050;-53
2023/08/26 02:27:22;;;;;;;6.13;5.03;;;20.50;99.90;;;22.11;70.72;97225.25;5020910;28;20050;-49
2023/08/26 02:29:51;;;;;;;7.82;5.20;;;20.50;99.90;;;22.09;70.34;97213.84;5029118;28;20045;-49
2023/08/26 02:32:20;;;;;;;8.40;5.15;;;20.50;99.90;;;22.09;70.07;97211.94;5028820;28;20205;-52
2023/08/26 02:34:47;;;;;;;7.95;5.43;;;20.50;99.90;;;22.12;70.16;97210.63;5013604;28;20042;-52
2023/08/26 02:37:15;;;;;;;6.10;4.93;;;20.50;99.90;;;22.12;70.52;97218.75;5020542;28;20513;-50
2023/08/26 02:39:43;;;;;;;6.47;5.25;;;20.50;99.90;;;22.12;70.14;97216.03;5013425;28;20038;-50
2023/08/26 02:42:10;;;;;;;8.73;4.68;;;20.40;99.90;;;22.12;70.37;97221.47;5003896;28;20418;-49
2023/08/26 02:44:38;;;;;;;5.55;4.40;;;20.40;99.90;;;22.10;70.16;97229.03;5020454;28;20042;-51
2023/08/26 02:47:05;;;;;;;7.47;5.78;;;20.40;99.90;;;22.09;70.15;97221.97;5011688;28;20411;-48
2023/08/26 02:49:33;;;;;;;5.63;4.88;;;20.40;99.90;;;22.10;69.97;97219.03;5011974;28;20050;-52
2023/08/26 02:52:00;;;;;;;8.20;5.63;;;20.30;99.90;;;22.09;69.74;97217.38;5028464;28;20050;-50
2023/08/26 02:54:28;;;;;;;7.72;5.50;;;20.30;99.90;;;22.09;69.97;97225.50;5013530;28;20053;-48
2023/08/26 02:56:59;;;;;;;7.43;5.25;;;20.40;99.90;;;22.07;69.83;97224.94;4995910;28;20061;-50
2023/08/26 02:59:29;;;;;;;6.65;5.32;;;20.40;99.90;;;22.08;69.39;97223.03;5011921;28;20049;-50
2023/08/26 03:02:06;;;;;;;9.10;4.95;;;20.40;99.90;;;22.05;69.65;97224.34;5019702;28;20434;-51
2023/08/26 03:04:34;;;;;;;6.97;4.72;;;20.40;99.90;;;22.06;69.27;97225.16;5019908;28;20533;-52
2023/08/26 03:07:02;;;;;;;10.23;5.43;;;20.40;99.90;;;22.03;69.49;97223.78;5027755;28;20050;-51
2023/08/26 03:09:30;;;;;;;7.15;4.93;;;20.40;99.90;;;22.02;69.10;97231.09;5018921;28;20041;-51
2023/08/26 03:11:58;;;;;;;6.85;4.68;;;20.40;99.90;;;21.97;69.13;97225.56;5019468;28;20053;-52
2023/08/26 03:14:27;;;;;;;7.38;4.68;;;20.30;99.90;;;21.98;68.92;97231.81;5011939;28;20053;-52
2023/08/26 03:16:55;;;;;;;5.07;4.22;;;20.30;99.90;;;21.96;68.74;97234.75;5019904;28;20046;-47
2023/08/26 03:19:22;;;;;;;5.55;4.28;;;20.30;99.90;;;21.98;68.93;97238.06;5019462;28;20070;-51
2023/08/26 03:21:50;;;;;;;7.20;4.53;;;20.30;99.90;;;21.97;68.58;97236.41;5012440;28;20069;-50
2023/08/26 03:24:17;;;;;;;7.28;4.10;;;20.30;99.90;;;21.98;68.52;97237.22;5012757;28;20057;-53
2023/08/26 03:26:48;;;;;;;8.07;4.57;;;20.30;99.90;;;21.95;68.42;97243.16;5027767;28;20046;-50
2023/08/26 03:29:15;;;;;;;6.18;4.65;;;20.20;99.90;;;21.88;68.54;97250.59;5019390;28;20042;-51
2023/08/26 03:31:44;;;;;;;8.30;4.97;;;20.10;99.90;;;21.88;68.39;97247.91;5019086;28;20052;-54
2023/08/26 03:34:14;;;;;;;8.15;4.35;;;20.10;99.90;;;21.87;67.92;97252.50;5011453;28;20049;-49
2023/08/26 03:36:43;;;;;;;6.45;4.60;;;20.20;99.90;;;21.85;68.04;97241.09;5019669;28;20042;-53
2023/08/26 03:39:10;;;;;;;10.35;5.38;;;20.10;99.90;;;21.87;67.98;97244.38;5019750;28;20057;-50
2023/08/26 03:41:39;;;;;;;6.57;4.15;;;20.20;99.90;;;21.83;67.77;97246.75;5018739;28;20525;-50
2023/08/26 03:44:06;;;;;;;7.35;4.10;;;20.20;99.90;;;21.81;67.60;97248.06;5024934;28;20048;-49
2023/08/26 03:46:34;;;;;;;9.02;5.45;;;20.10;99.90;;;21.80;67.33;97258.06;5027448;28;20049;-50
2023/08/26 03:49:02;;;;;;;6.88;4.50;;;20.10;99.90;;;21.81;67.34;97253.47;5010468;28;20049;-52
2023/08/26 03:51:30;;;;;;;6.97;4.15;;;20.10;99.90;;;21.82;67.48;97264.06;5011747;28;20050;-52
2023/08/26 03:53:57;;;;;;;7.95;4.75;;;20.10;99.90;;;21.82;67.79;97260.53;5027725;28;20077;-49
2023/08/26 03:56:28;;;;;;;8.43;5.10;;;20.10;99.90;;;21.80;67.35;97257.25;5027531;28;20057;-48
2023/08/26 03:58:57;;;;;;;6.68;4.70;;;20.00;99.90;;;21.76;67.30;97250.66;5012158;28;20049;-53
2023/08/26 04:01:24;;;;;;;8.23;5.20;;;20.00;99.90;;;21.65;67.61;97259.66;5011831;28;20053;-48
2023/08/26 04:03:52;;;;;;;12.48;5.75;;;19.90;99.90;;;21.62;67.17;97266.38;5027496;28;20053;-50
2023/08/26 04:06:20;;;;;;;6.38;4.93;;;19.90;99.90;;;21.55;67.20;97263.81;4994915;28;20053;-53
2023/08/26 04:08:48;;;;;;;8.10;5.20;;;19.80;99.90;;;21.54;67.23;97255.91;5002884;28;20038;-52
2023/08/26 04:11:17;;;;;;;6.10;4.72;;;19.80;99.90;;;21.48;67.09;97265.00;5026723;28;20437;-47
2023/08/26 04:13:45;;;;;;;6.35;5.18;;;19.80;99.90;;;21.46;67.05;97276.09;5026859;28;20042;-48
2023/08/26 04:16:15;;;;;;;7.03;5.07;;;19.80;99.90;;;21.42;67.28;97269.47;5019113;28;20061;-50
2023/08/26 04:18:43;;;;;;;8.85;4.85;;;19.70;99.90;;;21.35;67.15;97271.50;5011752;28;20061;-48
2023/08/26 04:21:11;;;;;;;7.95;4.95;;;19.70;99.90;;;21.36;67.34;97267.72;5025880;28;20060;-47
2023/08/26 04:23:38;;;;;;;7.28;5.30;;;19.70;99.90;;;21.36;66.95;97270.44;5002426;28;20065;-49
2023/08/26 04:26:07;;;;;;;9.60;5.95;;;19.70;99.90;;;21.34;66.84;97267.13;5012034;28;20042;-51
2023/08/26 04:28:34;;;;;;;6.63;4.95;;;19.60;99.90;;;21.27;67.33;97263.72;5010117;28;20045;-51
2023/08/26 04:31:02;;;;;;;8.20;4.88;;;19.60;99.90;;;21.25;66.92;97261.28;5026806;28;20061;-53
2023/08/26 04:33:30;;;;;;;10.35;5.32;;;19.60;99.90;;;21.15;66.84;97261.06;5018296;28;20053;-51
2023/08/26 04:35:58;;;;;;;8.15;5.47;;;19.50;99.90;;;21.15;67.06;97261.06;5026535;28;20417;-53
2023/08/26 04:38:25;;;;;;;9.38;5.72;;;19.40;99.90;;;21.12;67.26;97259.66;5026847;28;20050;-52
2023/08/26 04:40:53;;;;;;;8.75;5.45;;;19.40;99.90;;;21.14;67.13;97273.78;5018243;28;20038;-52
2023/08/26 04:43:20;;;;;;;9.05;5.90;;;19.40;99.90;;;20.99;66.77;97276.13;5011128;28;20417;-52
2023/08/26 04:45:48;;;;;;;13.30;5.90;;;19.40;99.90;;;20.93;66.98;97287.91;5018531;28;20042;-48
2023/08/26 04:48:16;;;;;;;8.00;5.55;;;19.30;99.90;;;20.87;67.06;97303.22;5025591;28;20058;-52
2023/08/26 04:50:44;;;;;;;7.30;4.63;;;19.30;99.90;;;20.92;67.00;97292.50;5026340;28;20050;-49
2023/08/26 04:53:12;;;;;;;9.32;5.32;;;19.30;99.90;;;20.97;67.13;97292.59;5009495;28;20052;-47
2023/08/26 04:55:40;;;;;;;6.68;5.10;;;19.40;99.90;;;20.94;66.88;97312.03;5018177;28;20053;-52
2023/08/26 04:58:08;;;;;;;8.43;5.43;;;19.40;99.90;;;20.94;67.19;97313.94;5026739;28;20049;-47
2023/08/26 05:00:40;;;;;;;7.82;5.30;;;19.40;99.90;;;20.93;66.79;97320.38;5025993;28;20437;-47
2023/08/26 05:03:09;;;;;;;9.85;5.57;;;19.30;99.90;;;20.83;66.56;97327.19;5010160;28;20045;-50
2023/08/26 05:05:41;;;;;;;8.63;5.57;;;19.20;99.90;;;20.87;66.60;97316.72;5011259;28;20418;-53
2023/08/26 05:08:09;;;;;;;8.38;5.35;;;19.20;99.90;;;20.91;66.77;97325.22;5018092;28;20265;-53
2023/08/26 05:10:39;;;;;;;9.02;5.75;;;19.20;99.90;;;20.90;66.82;97331.66;5026283;28;20415;-52
2023/08/26 05:13:07;;;;;;;8.02;5.22;;;19.20;99.90;;;20.89;66.66;97333.56;5026216;28;20046;-51
2023/08/26 05:15:35;;;;;;;7.05;5.00;;;19.20;99.90;;;20.92;66.27;97338.50;5026329;28;20065;-50
2023/08/26 05:18:04;;;;;;;10.60;4.78;;;19.20;99.90;;;20.91;66.33;97336.84;5010123;28;20042;-52
2023/08/26 05:20:32;;;;;;;6.85;4.50;;;19.20;99.90;;;20.91;66.42;97333.31;5025424;28;20061;-50
2023/08/26 05:23:00;;;;;;;10.95;5.50;;;19.20;99.90;;;20.89;66.44;97343.56;5025718;28;20413;-50
2023/08/26 05:25:28;;;;;;;8.77;5.72;;;19.20;99.90;;;20.90;66.46;97345.19;5017988;28;20050;-52
2023/08/26 05:27:56;;;;;;;7.47;4.65;;;19.20;99.90;;;20.88;66.18;97334.63;5009912;28;20046;-52
2023/08/26 05:30:24;;;;;;;6.80;4.82;;;19.10;99.90;;;20.88;66.18;97336.47;5010974;28;20046;-48
2023/08/26 05:32:54;;;;;;;6.63;4.82;;;19.10;99.90;;;20.89;66.33;97325.44;5013790;28;20042;-50
2023/08/26 05:35:23;;;;;;;10.70;6.05;;;19.20;99.90;;;20.89;66.37;97335.44;5010589;28;20046;-53
2023/08/26 05:37:51;;;;;;;8.93;4.88;;;19.20;99.90;;;20.87;66.25;97332.97;5012520;28;20053;-52
2023/08/26 05:40:26;;;;;;;11.18;5.07;;;19.20;99.90;;;20.89;66.31;97338.16;5030038;28;20305;-49
2023/08/26 05:42:56;;;;;;;8.48;4.78;;;19.20;99.90;;;20.87;66.54;97332.97;5021168;28;20068;-53
2023/08/26 05:45:25;;;;;;;9.73;5.68;;;19.20;99.90;;;20.90;66.53;97334.38;5029513;28;20061;-50
2023/08/26 05:47:54;;;;;;;6.63;4.65;;;19.20;99.90;;;20.93;66.67;97334.72;5005473;28;20044;-52
2023/08/26 05:50:23;;;;;;;6.80;4.25;;;19.30;99.90;;;20.94;66.62;97336.38;5021386;28;20053;-54
2023/08/26 05:52:50;;;;;;;7.68;5.07;;;19.30;99.90;;;20.90;66.75;97337.06;5014173;28;20517;-52
2023/08/26 05:55:20;;;;;;;11.00;6.20;;;19.20;99.90;;;20.90;66.68;97339.78;5029518;28;20501;-49
2023/08/26 05:57:47;;;;;;;6.72;5.00;;;19.30;99.90;;;20.93;67.15;97350.16;5029914;28;20057;-49
2023/08/26 06:00:16;;;;;;;5.63;4.65;;;19.40;99.90;;;21.01;67.28;97347.94;5021041;28;20465;-49
2023/08/26 06:02:44;;;;;;;8.85;4.70;;;19.50;99.90;;;21.09;66.91;97351.31;5013908;28;20062;-51
2023/08/26 06:05:15;;;;;;;7.60;6.03;;;19.60;99.90;;;21.18;66.77;97349.91;5029477;28;20061;-47
2023/08/26 06:07:43;;;;;;;7.57;4.85;;;19.70;99.90;;;21.22;66.78;97351.91;5025404;28;20516;-52
2023/08/26 06:10:10;;;;;;;7.22;4.63;;;19.70;99.90;;;21.29;66.47;97354.50;5018728;28;20418;-50
2023/08/26 06:12:39;;;;;;;7.93;5.65;;;19.80;99.90;;;21.33;66.52;97357.56;5028807;28;20073;-53
2023/08/26 06:15:10;;;;;;;6.95;4.72;;;19.80;99.90;;;21.39;66.90;97352.00;5012900;28;20417;-52
2023/08/26 06:17:41;;;;;;;9.80;4.68;;;19.80;99.90;;;21.40;66.13;97355.53;5011996;28;20050;-52
2023/08/26 06:20:11;;;;;;;8.35;4.57;;;19.90;99.90;;;21.39;66.20;97362.03;5029142;28;20532;-50
2023/08/26 06:22:42;;;;;;;8.68;4.80;;;19.80;99.90;;;21.31;66.12;97363.19;5013613;28;20057;-51
2023/08/26 06:25:11;;;;;;;7.13;4.63;;;19.80;99.90;;;21.29;66.58;97359.09;4996041;28;20046;-50
2023/08/26 06:27:39;;;;;;;6.68;4.90;;;19.70;99.90;;;21.22;66.61;97367.31;5013599;28;20046;-50
2023/08/26 06:30:07;;;;;;;9.10;4.55;;;19.70;99.90;;;21.18;66.40;97356.13;5029187;28;20057;-52
2023/08/26 06:32:35;;;;;;;9.80;5.28;;;19.60;99.90;;;21.10;66.79;97358.41;5028900;28;20065;-53
2023/08/26 06:35:04;;;;;;;7.97;5.03;;;19.60;99.90;;;21.17;66.65;97353.66;5012124;28;20536;-49
2023/08/26 06:37:35;;;;;;;5.88;4.93;;;19.70;99.90;;;21.30;66.70;97355.31;5012811;28;20502;-49
2023/08/26 06:40:03;;;;;;;8.52;4.70;;;19.80;99.90;;;21.27;66.85;97351.22;5004130;28;20414;-52
2023/08/26 06:42:32;;;;;;;9.30;4.95;;;19.80;99.90;;;21.36;66.93;97351.66;5011422;28;20054;-50
2023/08/26 06:45:02;;;;;;;6.40;4.10;;;19.80;99.90;;;21.46;66.69;97354.63;5016115;28;20045;-50
2023/08/26 06:47:29;;;;;;;9.20;4.97;;;20.00;99.90;;;21.53;66.68;97359.91;5020019;28;20054;-53
2023/08/26 06:49:57;;;;;;;8.75;5.50;;;20.00;99.90;;;21.60;66.51;97363.31;5011623;28;20054;-52
2023/08/26 06:52:25;;;;;;;9.00;4.78;;;20.10;99.90;;;21.66;66.33;97366.97;5013053;28;20395;-51
2023/08/26 06:54:52;;;;;;;8.95;5.65;;;20.10;99.90;;;21.71;66.17;97358.91;5012812;28;20498;-48
2023/08/26 06:57:20;;;;;;;7.68;5.28;;;20.20;99.90;;;21.78;65.87;97357.72;5012196;28;20060;-50
2023/08/26 06:59:48;;;;;;;9.70;4.65;;;20.30;99.90;;;21.85;65.80;97356.75;5012744;28;20060;-50
2023/08/26 07:02:15;;;;;;;7.95;5.13;;;20.40;99.90;;;21.89;65.81;97356.06;5019747;28;20169;-51
2023/08/26 07:04:44;;;;;;;8.32;4.93;;;20.40;99.90;;;21.94;65.13;97352.59;4995276;28;20049;-53
2023/08/26 07:07:13;;;;;;;10.55;5.10;;;20.50;99.90;;;21.99;65.39;97353.53;5013388;28;20135;-48
2023/08/26 07:09:40;;;;;;;6.22;4.80;;;20.50;99.90;;;21.97;64.95;97349.41;5012546;28;20399;-52
2023/08/26 07:12:08;;;;;;;7.75;4.72;;;20.50;99.90;;;21.93;64.48;97353.69;5012779;28;20056;-50
2023/08/26 07:14:36;;;;;;;7.97;4.75;;;20.40;98.60;;;21.87;64.85;97369.00;5012884;28;20053;-50
2023/08/26 07:17:03;;;;;;;9.48;6.03;;;20.30;99.90;;;21.90;64.97;97371.22;5011283;28;20038;-52
2023/08/26 07:19:31;;;;;;;7.15;5.38;;;20.40;99.90;;;21.92;64.53;97371.00;5012437;28;20077;-50
2023/08/26 07:21:58;;;;;;;8.70;5.50;;;20.40;99.90;;;21.82;65.02;97369.72;5012481;28;20049;-48
2023/08/26 07:24:26;;;;;;;9.40;5.93;;;20.40;99.90;;;21.85;64.65;97373.00;5012798;28;20049;-49
2023/08/26 07:26:54;;;;;;;7.75;5.55;;;20.40;99.90;;;21.82;64.46;97372.44;5012271;28;20046;-50
2023/08/26 07:29:21;;;;;;;7.32;5.03;;;20.40;99.20;;;21.82;64.72;97369.72;5011345;28;20042;-51
2023/08/26 07:31:49;;;;;;;11.30;5.50;;;20.40;99.90;;;21.89;65.07;97371.47;5012402;28;20437;-50
2023/08/26 07:34:17;;;;;;;6.82;5.78;;;20.50;99.90;;;21.75;64.23;97366.34;5012648;28;20416;-53
2023/08/26 07:36:45;;;;;;;5.15;4.15;;;20.40;96.20;;;21.86;63.97;97364.66;5012488;28;20497;-48
2023/08/26 07:39:12;;;;;;;7.60;4.88;;;20.40;99.00;;;21.79;63.89;97372.09;5012446;28;20042;-47
2023/08/26 07:41:40;;;;;;;10.18;5.25;;;20.40;97.10;;;21.79;64.19;97359.38;5012123;28;20050;-52
2023/08/26 07:44:07;;;;;;;7.88;5.28;;;20.30;98.50;;;21.84;64.00;97345.09;5012277;28;20034;-48
2023/08/26 07:46:35;;;;;;;6.10;5.40;;;20.30;99.90;;;21.85;63.88;97341.34;5027500;28;20045;-49
2023/08/26 07:49:06;;;;;;;9.85;5.20;;;20.40;99.70;;;21.82;63.19;97350.75;5011999;28;20583;-48
2023/08/26 07:51:33;;;;;;;5.82;3.92;;;20.30;96.90;;;21.84;63.39;97353.22;5012048;28;20038;-52
2023/08/26 07:54:01;;;;;;;7.40;5.20;;;20.40;98.70;;;21.92;63.10;97352.03;5018765;28;20072;-49
2023/08/26 07:56:29;;;;;;;10.02;4.40;;;20.50;97.20;;;21.91;62.95;97343.09;5012275;28;20053;-48
2023/08/26 07:58:56;;;;;;;7.30;5.10;;;20.40;95.90;;;21.90;63.13;97338.72;5011976;28;20046;-50
2023/08/26 08:01:24;;;;;;;7.28;4.90;;;20.40;97.10;;;21.93;63.14;97343.66;5026974;28;20069;-50
2023/08/26 08:03:51;;;;;;;8.25;4.10;;;20.50;97.90;;;21.90;63.21;97338.72;5009874;28;20038;-49
2023/08/26 08:06:19;;;;;;;7.47;4.43;;;20.60;94.60;;;21.88;63.17;97359.00;5011457;28;20072;-50
2023/08/26 08:08:47;;;;;;;11.82;5.45;;;20.40;95.90;;;21.77;63.16;97350.66;5011129;28;20046;-52
2023/08/26 08:11:14;;;;;;;7.57;5.20;;;20.40;97.00;;;21.80;63.41;97352.88;5010790;28;20045;-49
2023/08/26 08:13:42;;;;;;;9.38;4.93;;;20.40;97.20;;;21.72;63.50;97350.56;5011134;28;20417;-46
2023/08/26 08:16:10;;;;;;;6.18;5.22;;;20.40;97.50;;;21.76;63.54;97350.91;5011293;28;20049;-48
2023/08/26 08:18:38;;;;;;;6.00;4.30;;;20.40;97.50;;;21.82;63.38;97358.06;5011146;28;20056;-51
2023/08/26 08:21:05;;;;;;;5.55;4.47;;;20.30;95.90;;;21.72;62.44;97342.44;5010776;28;20049;-47
2023/08/26 08:23:33;;;;;;;6.35;4.22;;;20.30;95.20;;;21.68;61.99;97345.88;5010360;28;20049;-47
2023/08/26 08:26:01;;;;;;;6.72;4.10;;;20.20;94.10;;;21.68;62.11;97340.44;5011344;28;20042;-47
2023/08/26 08:28:28;;;;;;;6.30;3.88;;;20.20;95.10;;;21.85;62.12;97351.34;5010770;28;20050;-51
2023/08/26 08:30:56;;;;;;;5.25;3.70;;;20.40;94.70;;;21.77;61.00;97344.41;5010546;28;20042;-48
2023/08/26 08:33:24;;;;;;;7.28;3.88;;;20.40;90.50;;;21.80;60.98;97344.75;5010763;28;20061;-49
2023/08/26 08:35:52;;;;;;;5.90;3.78;;;20.40;91.80;;;21.85;60.86;97333.22;5010610;28;20045;-50
2023/08/26 08:38:19;;;;;;;5.68;3.72;;;20.30;91.70;;;21.91;60.70;97342.25;5009653;28;20536;-50
2023/08/26 08:40:47;;;;;;;4.25;3.05;;;20.40;91.10;;;21.95;60.34;97346.13;5025843;28;20050;-50
2023/08/26 08:43:18;;;;;;;7.55;3.60;;;20.50;89.50;;;21.93;59.48;97343.66;5010652;28;20042;-48
2023/08/26 08:45:46;;;;;;;6.20;4.10;;;20.40;88.10;;;21.89;58.85;97345.22;5009828;28;20391;-49
2023/08/26 08:48:13;;;;;;;4.88;3.13;;;20.40;86.90;;;21.88;58.56;97345.44;5008430;28;20045;-53
2023/08/26 08:50:42;;;;;;;6.30;3.40;;;20.40;85.90;;;21.76;58.67;97343.59;5010482;28;20045;-49
2023/08/26 08:53:13;;;;;;;5.18;3.53;;;20.30;86.20;;;21.79;59.01;97353.97;5025607;28;20050;-51
2023/08/26 08:55:41;;;;;;;6.75;3.95;;;20.40;87.50;;;21.91;59.56;97347.69;5002371;28;20053;-49
2023/08/26 08:58:10;;;;;;;7.53;3.97;;;20.50;88.70;;;22.05;59.46;97343.59;5009656;28;20054;-50
2023/08/26 09:00:39;;;;;;;5.40;3.10;;;20.70;88.70;;;22.21;59.33;97352.84;5001368;28;20045;-48
2023/08/26 09:03:08;;;;;;;5.88;3.85;;;20.90;86.70;;;22.35;58.64;97359.66;5009258;28;20498;-50
2023/08/26 09:05:37;;;;;;;6.40;4.00;;;21.10;84.90;;;22.49;58.61;97367.47;5010582;28;20135;-50
2023/08/26 09:08:08;;;;;;;5.25;3.97;;;21.30;84.50;;;22.52;57.98;97375.13;5014078;28;20042;-48
2023/08/26 09:10:36;;;;;;;6.45;3.78;;;21.20;80.90;;;22.34;57.55;97368.03;5013052;28;20049;-50
2023/08/26 09:13:05;;;;;;;9.90;4.72;;;21.10;82.80;;;22.46;58.01;97368.78;5013113;28;20041;-52
2023/08/26 09:15:33;;;;;;;5.80;4.38;;;21.10;83.60;;;22.46;57.39;97362.53;5014739;28;20050;-52
2023/08/26 09:18:02;;;;;;;4.82;3.20;;;21.10;81.10;;;22.38;56.95;97359.16;5014344;28;20057;-51
2023/08/26 09:20:37;;;;;;;5.93;3.30;;;20.90;81.60;;;22.34;57.40;97358.00;5014090;28;20513;-49
2023/08/26 09:23:05;;;;;;;8.30;3.60;;;20.90;83.00;;;22.38;57.33;97358.34;5013783;28;20513;-50
2023/08/26 09:25:34;;;;;;;5.00;3.63;;;20.90;82.30;;;22.40;57.38;97353.50;5014145;28;20048;-48
2023/08/26 09:28:04;;;;;;;7.57;3.85;;;21.00;82.70;;;22.44;57.28;97351.13;5013893;28;20049;-51
2023/08/26 09:30:31;;;;;;;6.35;3.33;;;20.90;83.70;;;22.34;57.11;97351.75;5013583;28;20421;-50
2023/08/26 09:32:59;;;;;;;6.50;2.97;;;20.90;83.30;;;22.37;56.79;97353.97;5014755;28;20069;-51
2023/08/26 09:35:27;;;;;;;7.40;3.78;;;20.90;82.80;;;22.40;57.05;97348.06;5014845;28;20053;-49
2023/08/26 09:37:58;;;;;;;6.22;3.67;;;20.90;82.50;;;22.34;56.94;97351.75;5014485;28;20489;-50
2023/08/26 09:40:26;;;;;;;6.60;3.92;;;20.80;82.60;;;22.35;57.22;97339.84;5014996;28;20046;-49
2023/08/26 09:42:54;;;;;;;5.82;3.92;;;20.80;83.40;;;22.34;57.08;97335.50;5014665;28;20501;-50
2023/08/26 09:45:21;;;;;;;8.38;3.97;;;20.90;82.30;;;22.32;57.31;97348.47;5001991;28;20045;-50
2023/08/26 09:47:50;;;;;;;6.00;3.75;;;20.90;83.40;;;22.48;57.47;97338.72;5013955;28;20065;-53
2023/08/26 09:50:31;;;;;;;7.32;3.60;;;21.20;83.70;;;22.51;57.34;97344.47;5014297;28;20053;-52
2023/08/26 09:52:59;;;;;;;5.15;3.40;;;21.30;81.80;;;22.57;57.22;97334.53;5013984;28;20038;-51
2023/08/26 09:55:28;;;;;;;5.13;4.53;;;21.20;82.70;;;22.61;56.85;97332.97;5013669;28;20425;-51
2023/08/26 09:57:57;;;;;;;6.68;3.85;;;21.30;82.70;;;22.73;57.12;97338.31;5029546;28;20415;-51
2023/08/26 10:00:25;;;;;;;4.80;3.50;;;21.50;82.80;;;22.77;55.83;97339.47;5005100;28;20141;-53
2023/08/26 10:03:01;;;;;;;3.72;3.10;;;21.50;79.00;;;22.81;55.11;97336.00;5011693;28;20052;-50
2023/08/26 10:05:36;;;;;;;4.80;3.22;;;21.50;75.80;;;22.88;54.93;97338.56;5004750;28;20049;-48
2023/08/26 10:08:09;;;;;;;5.68;3.10;;;21.50;76.50;;;22.78;53.98;97336.50;5014185;28;20037;-48
2023/08/26 10:10:53;;;;;;;4.90;3.17;;;21.40;76.00;;;22.68;54.32;97327.38;5014163;28;20497;-49
2023/08/26 10:13:25;;;;;;;3.35;2.63;;;21.20;75.90;;;22.70;54.40;97338.78;5012760;28;20074;-54
2023/08/26 10:15:58;;;;;;;6.22;3.33;;;21.20;77.30;;;22.73;53.74;97330.19;5012899;28;20050;-50
2023/08/26 10:18:53;;;;;;;6.72;2.88;;;21.20;75.40;;;22.71;53.84;97321.47;5005199;28;20053;-50
2023/08/26 10:21:22;;;;;;;7.50;2.78;;;21.30;74.40;;;22.80;54.04;97322.69;5012668;28;20050;-49
2023/08/26 10:23:50;;;;;;;4.53;3.33;;;21.40;77.20;;;22.93;54.16;97326.94;5012593;28;20045;-50